sensor_id;sensor_type;location;lat;lon;timestamp;pressure;altitude;pressure_sealevel;temperature;humidity
43281;BME280;62175;49.416;8.690;2023-07-09T00:01:13;100734.35;;;25.60;46.50
43281;BME280;62175;49.416;8.690;2023-07-09T00:03:40;100739.11;;;25.59;48.05
43281;BME280;62175;49.416;8.690;2023-07-09T00:06:08;100741.62;;;25.43;48.38
43281;BME280;62175;49.416;8.690;2023-07-09T00:08:37;100743.19;;;25.63;47.64
43281;BME280;62175;49.416;8.690;2023-07-09T00:11:06;100743.43;;;25.40;49.26
43281;BME280;62175;49.416;8.690;2023-07-09T00:13:33;100741.24;;;25.40;47.55
43281;BME280;62175;49.416;8.690;2023-07-09T00:16:03;100742.79;;;25.37;47.32
43281;BME280;62175;49.416;8.690;2023-07-09T00:18:34;100745.45;;;25.43;48.74
43281;BME280;62175;49.416;8.690;2023-07-09T00:21:01;100745.57;;;25.43;47.81
43281;BME280;62175;49.416;8.690;2023-07-09T00:23:28;100745.91;;;25.59;47.38
43281;BME280;62175;49.416;8.690;2023-07-09T00:25:55;100745.82;;;25.44;47.55
43281;BME280;62175;49.416;8.690;2023-07-09T00:28:22;100745.90;;;25.51;47.21
43281;BME280;62175;49.416;8.690;2023-07-09T00:30:49;100749.46;;;25.41;47.70
43281;BME280;62175;49.416;8.690;2023-07-09T00:33:16;100750.65;;;25.30;48.00
43281;BME280;62175;49.416;8.690;2023-07-09T00:35:43;100750.14;;;25.36;46.86
43281;BME280;62175;49.416;8.690;2023-07-09T00:38:14;100750.39;;;25.32;47.04
43281;BME280;62175;49.416;8.690;2023-07-09T00:40:47;100752.65;;;25.46;47.49
43281;BME280;62175;49.416;8.690;2023-07-09T00:43:16;100753.71;;;25.32;46.39
43281;BME280;62175;49.416;8.690;2023-07-09T00:45:43;100751.62;;;25.45;46.51
43281;BME280;62175;49.416;8.690;2023-07-09T00:48:13;100750.15;;;25.43;45.85
43281;BME280;62175;49.416;8.690;2023-07-09T00:50:47;100752.30;;;25.32;46.70
43281;BME280;62175;49.416;8.690;2023-07-09T00:53:20;100754.86;;;25.49;46.13
43281;BME280;62175;49.416;8.690;2023-07-09T00:55:52;100752.77;;;25.58;46.12
43281;BME280;62175;49.416;8.690;2023-07-09T00:58:21;100748.80;;;25.39;46.60
43281;BME280;62175;49.416;8.690;2023-07-09T01:00:51;100747.04;;;25.36;46.05
43281;BME280;62175;49.416;8.690;2023-07-09T01:03:24;100744.88;;;25.41;45.90
43281;BME280;62175;49.416;8.690;2023-07-09T01:05:54;100747.50;;;25.36;45.93
43281;BME280;62175;49.416;8.690;2023-07-09T01:08:21;100749.05;;;25.33;47.09
43281;BME280;62175;49.416;8.690;2023-07-09T01:10:48;100749.48;;;25.40;45.73
43281;BME280;62175;49.416;8.690;2023-07-09T01:13:16;100754.09;;;25.42;45.22
43281;BME280;62175;49.416;8.690;2023-07-09T02:17:22;100768.73;;;24.94;49.50
43281;BME280;62175;49.416;8.690;2023-07-09T02:19:49;100767.37;;;24.45;50.34
43281;BME280;62175;49.416;8.690;2023-07-09T02:22:15;100765.11;;;24.81;49.97
43281;BME280;62175;49.416;8.690;2023-07-09T02:24:42;100767.19;;;24.95;49.16
43281;BME280;62175;49.416;8.690;2023-07-09T02:27:10;100767.23;;;25.22;48.81
43281;BME280;62175;49.416;8.690;2023-07-09T02:29:37;100767.41;;;24.77;48.78
43281;BME280;62175;49.416;8.690;2023-07-09T02:38:05;100763.92;;;24.93;48.99
43281;BME280;62175;49.416;8.690;2023-07-09T02:40:32;100763.32;;;24.89;48.87
43281;BME280;62175;49.416;8.690;2023-07-09T02:42:59;100768.85;;;24.66;48.72
43281;BME280;62175;49.416;8.690;2023-07-09T02:45:26;100767.51;;;24.97;48.67
43281;BME280;62175;49.416;8.690;2023-07-09T02:47:52;100767.89;;;24.76;48.43
43281;BME280;62175;49.416;8.690;2023-07-09T02:50:19;100764.81;;;24.72;49.50
43281;BME280;62175;49.416;8.690;2023-07-09T02:52:46;100762.88;;;25.23;48.62
43281;BME280;62175;49.416;8.690;2023-07-09T02:55:13;100761.28;;;24.76;49.63
43281;BME280;62175;49.416;8.690;2023-07-09T02:57:40;100760.11;;;25.04;52.92
43281;BME280;62175;49.416;8.690;2023-07-09T03:00:07;100759.38;;;25.08;48.20
43281;BME280;62175;49.416;8.690;2023-07-09T03:02:34;100756.88;;;24.52;47.87
43281;BME280;62175;49.416;8.690;2023-07-09T03:05:02;100758.98;;;24.97;48.32
43281;BME280;62175;49.416;8.690;2023-07-09T03:07:29;100759.94;;;25.09;49.28
43281;BME280;62175;49.416;8.690;2023-07-09T03:09:56;100761.59;;;24.74;48.72
43281;BME280;62175;49.416;8.690;2023-07-09T03:12:23;100763.27;;;24.76;48.45
43281;BME280;62175;49.416;8.690;2023-07-09T03:14:50;100762.82;;;24.73;47.22
43281;BME280;62175;49.416;8.690;2023-07-09T03:17:16;100763.43;;;24.63;47.90
43281;BME280;62175;49.416;8.690;2023-07-09T03:19:43;100768.83;;;24.81;48.35
43281;BME280;62175;49.416;8.690;2023-07-09T03:22:10;100772.09;;;25.31;47.50
43281;BME280;62175;49.416;8.690;2023-07-09T03:24:37;100773.77;;;24.87;48.64
43281;BME280;62175;49.416;8.690;2023-07-09T03:27:05;100776.42;;;24.77;47.36
43281;BME280;62175;49.416;8.690;2023-07-09T03:29:32;100780.63;;;25.19;47.86
43281;BME280;62175;49.416;8.690;2023-07-09T03:32:01;100786.96;;;24.91;47.15
43281;BME280;62175;49.416;8.690;2023-07-09T03:34:30;100792.21;;;24.96;47.57
43281;BME280;62175;49.416;8.690;2023-07-09T03:37:00;100796.33;;;24.84;48.39
43281;BME280;62175;49.416;8.690;2023-07-09T03:39:29;100800.28;;;24.83;48.12
43281;BME280;62175;49.416;8.690;2023-07-09T03:41:57;100805.03;;;24.75;47.84
43281;BME280;62175;49.416;8.690;2023-07-09T03:44:26;100806.64;;;24.92;47.98
43281;BME280;62175;49.416;8.690;2023-07-09T03:46:55;100805.57;;;24.89;47.81
43281;BME280;62175;49.416;8.690;2023-07-09T03:49:24;100805.58;;;24.81;47.46
43281;BME280;62175;49.416;8.690;2023-07-09T03:51:52;100805.14;;;24.79;47.64
43281;BME280;62175;49.416;8.690;2023-07-09T03:54:20;100810.82;;;24.85;49.43
43281;BME280;62175;49.416;8.690;2023-07-09T03:56:50;100813.33;;;24.83;47.82
43281;BME280;62175;49.416;8.690;2023-07-09T03:59:19;100817.09;;;25.05;48.04
43281;BME280;62175;49.416;8.690;2023-07-09T04:01:48;100820.31;;;24.92;48.11
43281;BME280;62175;49.416;8.690;2023-07-09T04:04:16;100822.47;;;24.84;48.43
43281;BME280;62175;49.416;8.690;2023-07-09T04:06:44;100823.58;;;25.18;47.87
43281;BME280;62175;49.416;8.690;2023-07-09T04:09:12;100824.20;;;24.65;48.19
43281;BME280;62175;49.416;8.690;2023-07-09T04:11:43;100822.12;;;24.69;49.40
43281;BME280;62175;49.416;8.690;2023-07-09T04:14:13;100824.13;;;24.63;48.43
43281;BME280;62175;49.416;8.690;2023-07-09T04:16:44;100823.38;;;24.89;49.26
43281;BME280;62175;49.416;8.690;2023-07-09T04:19:12;100826.85;;;24.90;48.32
43281;BME280;62175;49.416;8.690;2023-07-09T04:36:08;100828.13;;;24.59;51.10
43281;BME280;62175;49.416;8.690;2023-07-09T04:38:35;100828.99;;;24.16;50.30
43281;BME280;62175;49.416;8.690;2023-07-09T04:41:02;100828.93;;;24.33;50.43
43281;BME280;62175;49.416;8.690;2023-07-09T04:43:28;100827.34;;;24.42;50.36
43281;BME280;62175;49.416;8.690;2023-07-09T04:45:55;100827.04;;;24.51;50.03
43281;BME280;62175;49.416;8.690;2023-07-09T04:48:23;100825.83;;;24.62;50.02
43281;BME280;62175;49.416;8.690;2023-07-09T04:50:50;100826.21;;;24.45;50.45
43281;BME280;62175;49.416;8.690;2023-07-09T04:53:18;100826.06;;;24.67;50.40
43281;BME280;62175;49.416;8.690;2023-07-09T04:55:45;100825.36;;;24.58;50.91
43281;BME280;62175;49.416;8.690;2023-07-09T04:58:13;100822.43;;;24.75;50.39
43281;BME280;62175;49.416;8.690;2023-07-09T05:00:40;100822.62;;;24.80;49.80
43281;BME280;62175;49.416;8.690;2023-07-09T05:03:08;100821.12;;;24.64;48.95
43281;BME280;62175;49.416;8.690;2023-07-09T05:05:35;100824.34;;;24.72;49.33
43281;BME280;62175;49.416;8.690;2023-07-09T05:08:02;100829.51;;;24.69;49.46
43281;BME280;62175;49.416;8.690;2023-07-09T05:10:29;100831.84;;;24.68;48.93
43281;BME280;62175;49.416;8.690;2023-07-09T05:12:56;100839.70;;;24.58;49.52
43281;BME280;62175;49.416;8.690;2023-07-09T05:15:23;100844.93;;;24.85;49.15
43281;BME280;62175;49.416;8.690;2023-07-09T05:17:50;100846.78;;;24.90;51.05
43281;BME280;62175;49.416;8.690;2023-07-09T05:20:17;100849.54;;;24.90;51.99
43281;BME280;62175;49.416;8.690;2023-07-09T05:22:44;100849.45;;;24.64;49.97
43281;BME280;62175;49.416;8.690;2023-07-09T05:25:11;100845.83;;;24.89;49.32
43281;BME280;62175;49.416;8.690;2023-07-09T05:27:38;100842.84;;;25.02;48.94
43281;BME280;62175;49.416;8.690;2023-07-09T05:30:06;100839.59;;;24.90;49.22
43281;BME280;62175;49.416;8.690;2023-07-09T05:32:34;100837.41;;;24.99;49.37
43281;BME280;62175;49.416;8.690;2023-07-09T05:35:01;100835.62;;;25.01;48.57
43281;BME280;62175;49.416;8.690;2023-07-09T05:37:33;100835.12;;;24.70;48.42
43281;BME280;62175;49.416;8.690;2023-07-09T05:40:00;100836.54;;;25.03;48.99
43281;BME280;62175;49.416;8.690;2023-07-09T05:42:27;100838.49;;;25.11;48.92
43281;BME280;62175;49.416;8.690;2023-07-09T05:44:53;100842.49;;;25.13;48.95
43281;BME280;62175;49.416;8.690;2023-07-09T05:47:20;100847.44;;;24.99;48.41
43281;BME280;62175;49.416;8.690;2023-07-09T05:49:47;100844.37;;;25.37;48.33
43281;BME280;62175;49.416;8.690;2023-07-09T05:52:14;100844.21;;;25.17;48.67
43281;BME280;62175;49.416;8.690;2023-07-09T05:54:40;100844.25;;;25.40;48.09
43281;BME280;62175;49.416;8.690;2023-07-09T05:57:08;100845.80;;;24.90;49.79
43281;BME280;62175;49.416;8.690;2023-07-09T05:59:35;100846.20;;;25.08;49.04
43281;BME280;62175;49.416;8.690;2023-07-09T06:02:03;100843.22;;;25.41;48.93
43281;BME280;62175;49.416;8.690;2023-07-09T06:04:30;100843.93;;;24.84;48.79
43281;BME280;62175;49.416;8.690;2023-07-09T06:06:57;100842.40;;;25.36;48.21
43281;BME280;62175;49.416;8.690;2023-07-09T06:09:23;100850.21;;;24.89;48.21
43281;BME280;62175;49.416;8.690;2023-07-09T06:11:50;100854.11;;;25.02;48.06
43281;BME280;62175;49.416;8.690;2023-07-09T06:14:17;100859.72;;;24.94;47.74
43281;BME280;62175;49.416;8.690;2023-07-09T06:16:44;100863.83;;;24.98;47.66
43281;BME280;62175;49.416;8.690;2023-07-09T06:19:11;100865.15;;;25.54;47.54
43281;BME280;62175;49.416;8.690;2023-07-09T06:21:39;100862.53;;;25.12;47.66
43281;BME280;62175;49.416;8.690;2023-07-09T06:24:08;100862.66;;;25.11;47.80
43281;BME280;62175;49.416;8.690;2023-07-09T06:26:36;100868.34;;;25.15;47.60
43281;BME280;62175;49.416;8.690;2023-07-09T06:29:03;100866.81;;;25.40;47.88
43281;BME280;62175;49.416;8.690;2023-07-09T06:31:30;100864.88;;;25.17;47.92
43281;BME280;62175;49.416;8.690;2023-07-09T06:33:57;100861.24;;;25.51;48.07
43281;BME280;62175;49.416;8.690;2023-07-09T06:36:25;100860.63;;;25.20;49.99
43281;BME280;62175;49.416;8.690;2023-07-09T06:38:52;100863.37;;;25.72;48.72
43281;BME280;62175;49.416;8.690;2023-07-09T06:41:19;100860.95;;;25.26;48.69
43281;BME280;62175;49.416;8.690;2023-07-09T06:43:47;100859.48;;;25.27;48.91
43281;BME280;62175;49.416;8.690;2023-07-09T06:46:15;100857.83;;;25.36;48.58
43281;BME280;62175;49.416;8.690;2023-07-09T06:48:42;100860.08;;;25.62;48.66
43281;BME280;62175;49.416;8.690;2023-07-09T06:51:09;100862.06;;;25.41;48.53
43281;BME280;62175;49.416;8.690;2023-07-09T06:53:36;100865.05;;;25.38;48.65
43281;BME280;62175;49.416;8.690;2023-07-09T06:56:03;100866.26;;;25.38;49.37
43281;BME280;62175;49.416;8.690;2023-07-09T06:58:32;100865.82;;;25.39;49.53
43281;BME280;62175;49.416;8.690;2023-07-09T07:01:51;100863.70;;;25.41;49.04
43281;BME280;62175;49.416;8.690;2023-07-09T22:02:55;100575.41;;;26.18;55.05
43281;BME280;62175;49.416;8.690;2023-07-09T22:05:24;100578.53;;;26.59;54.82
43281;BME280;62175;49.416;8.690;2023-07-09T22:07:53;100577.01;;;26.40;54.59
43281;BME280;62175;49.416;8.690;2023-07-09T22:10:26;100578.84;;;26.50;54.46
43281;BME280;62175;49.416;8.690;2023-07-09T22:12:56;100580.58;;;26.94;51.20
43281;BME280;62175;49.416;8.690;2023-07-09T22:15:27;100579.35;;;26.92;53.57
43281;BME280;62175;49.416;8.690;2023-07-09T22:17:55;100572.70;;;26.85;54.20
43281;BME280;62175;49.416;8.690;2023-07-09T22:20:26;100569.46;;;26.63;52.46
43281;BME280;62175;49.416;8.690;2023-07-09T22:22:57;100573.31;;;26.84;50.48
43281;BME280;62175;49.416;8.690;2023-07-09T22:25:26;100574.79;;;26.85;52.80
43281;BME280;62175;49.416;8.690;2023-07-09T22:27:55;100571.81;;;26.82;54.07
43281;BME280;62175;49.416;8.690;2023-07-09T22:30:26;100576.17;;;26.84;53.43
43281;BME280;62175;49.416;8.690;2023-07-09T22:32:57;100585.66;;;26.84;53.03
43281;BME280;62175;49.416;8.690;2023-07-09T22:35:30;100590.29;;;26.84;51.03
43281;BME280;62175;49.416;8.690;2023-07-09T22:37:58;100598.47;;;26.84;51.32
43281;BME280;62175;49.416;8.690;2023-07-09T22:40:28;100613.76;;;26.90;52.13
43281;BME280;62175;49.416;8.690;2023-07-09T22:42:57;100616.09;;;26.75;49.98
43281;BME280;62175;49.416;8.690;2023-07-09T22:45:26;100620.46;;;26.93;49.67
43281;BME280;62175;49.416;8.690;2023-07-09T22:47:58;100622.04;;;26.90;49.88
43281;BME280;62175;49.416;8.690;2023-07-09T22:50:29;100624.82;;;27.00;49.16
43281;BME280;62175;49.416;8.690;2023-07-09T22:52:57;100630.86;;;26.85;50.64
43281;BME280;62175;49.416;8.690;2023-07-09T22:55:35;100636.21;;;26.77;49.31
43281;BME280;62175;49.416;8.690;2023-07-09T22:58:04;100642.71;;;26.92;50.15
43281;BME280;62175;49.416;8.690;2023-07-09T23:00:37;100643.07;;;26.65;48.51
43281;BME280;62175;49.416;8.690;2023-07-09T23:03:11;100641.70;;;26.64;49.86
43281;BME280;62175;49.416;8.690;2023-07-09T23:05:41;100649.12;;;27.05;49.36
43281;BME280;62175;49.416;8.690;2023-07-09T23:08:20;100648.63;;;26.98;48.58
43281;BME280;62175;49.416;8.690;2023-07-09T23:10:51;100646.50;;;26.93;48.76
43281;BME280;62175;49.416;8.690;2023-07-09T23:13:19;100647.47;;;26.98;48.04
43281;BME280;62175;49.416;8.690;2023-07-09T23:15:46;100651.91;;;27.08;49.09
43281;BME280;62175;49.416;8.690;2023-07-09T23:18:16;100651.53;;;27.13;48.66
43281;BME280;62175;49.416;8.690;2023-07-09T23:20:45;100646.62;;;26.88;49.17
43281;BME280;62175;49.416;8.690;2023-07-09T23:23:12;100642.75;;;26.87;49.94
43281;BME280;62175;49.416;8.690;2023-07-09T23:25:39;100641.64;;;27.12;48.72
43281;BME280;62175;49.416;8.690;2023-07-09T23:28:11;100639.78;;;26.72;50.02
43281;BME280;62175;49.416;8.690;2023-07-09T23:30:40;100636.04;;;26.96;50.40
43281;BME280;62175;49.416;8.690;2023-07-09T23:33:24;100634.93;;;26.73;49.87
43281;BME280;62175;49.416;8.690;2023-07-09T23:35:53;100634.44;;;26.64;51.71
43281;BME280;62175;49.416;8.690;2023-07-09T23:38:20;100633.66;;;26.63;52.16
43281;BME280;62175;49.416;8.690;2023-07-09T23:40:48;100631.34;;;26.82;51.04
43281;BME280;62175;49.416;8.690;2023-07-09T23:43:16;100624.17;;;26.81;50.58
43281;BME280;62175;49.416;8.690;2023-07-09T23:45:44;100621.04;;;26.79;50.61
43281;BME280;62175;49.416;8.690;2023-07-09T23:48:21;100622.90;;;26.67;51.01
43281;BME280;62175;49.416;8.690;2023-07-09T23:50:51;100620.61;;;26.65;50.92
43281;BME280;62175;49.416;8.690;2023-07-09T23:53:23;100611.53;;;26.65;51.23
43281;BME280;62175;49.416;8.690;2023-07-09T23:55:51;100611.75;;;26.92;50.36
43281;BME280;62175;49.416;8.690;2023-07-09T23:58:23;100615.27;;;26.64;50.03
